Latest Weather Observations for Julia Creek

IDQ60801

Issued at 3:05 pm EST Saturday 25 October 2014 (issued every 30 minutes, with the page automatically refreshed every 10 minutes)

About weather observations | Map of weather stations | Latest weather observations for QLD | Other Formats
Station Details ID: 029058 Name: JULIA CREEK AIRPORT Lat: -20.67 Lon: 141.72 Height: 122.5 m
Data from the previous 72 hours. | See also: Recent months at Julia Creek
Date/Time
EST
Temp
°C
App
Temp
°C
Dew
Point
Rel
Hum
%
Delta-T
°C
Wind Press
QNH
hPa
Press
MSL
hPa
Rain
since 9 am
mm
Dir
 
Spd
km/h
Gust
km/h
Spd
kts
Gust
kts
25/03:00pm 38.4 31.9 0.0 9 19.5 ESE 24 33 13 18 1013.2 1012.5 0.0
25/02:40pm 38.8 31.8 1.7 10 19.3 E 28 43 15 23 1013.4 1012.7 0.0
25/02:30pm 38.9 34.3 1.8 10 19.4 E 15 20 8 11 1013.6 1012.9 0.0
25/02:21pm 38.5 32.9 1.5 10 19.2 ENE 20 28 11 15 1013.7 1013.0 0.0
25/02:05pm 38.8 30.3 3.1 11 19.0 ESE 37 44 20 24 1014.1 1013.3 0.0
25/02:00pm 37.9 32.9 3.6 12 18.3 E 19 35 10 19 1014.1 1013.3 0.0
25/01:30pm 37.4 32.1 3.2 12 18.1 E 20 39 11 21 1014.6 1013.8 0.0
25/01:00pm 36.8 33.0 3.9 13 17.5 E 13 26 7 14 1015.1 1014.3 0.0
25/12:30pm 35.0 32.3 2.5 13 16.8 E 6 13 3 7 1016.1 1015.3 0.0
25/12:00pm 34.8 31.3 3.4 14 16.4 ENE 11 20 6 11 1017.1 1016.4 0.0
25/11:30am 34.4 31.8 3.1 14 16.3 NNE 6 11 3 6 1017.7 1017.0 0.0
25/11:00am 33.1 29.9 3.0 15 15.5 N 9 17 5 9 1018.1 1017.4 0.0
25/10:30am 32.0 28.8 3.1 16 14.8 NNW 9 19 5 10 1018.7 1018.0 0.0
25/10:00am 30.5 27.5 1.9 16 14.2 NNE 7 15 4 8 1019.1 1018.4 0.0
25/09:30am 30.0 26.2 1.5 16 14.0 N 11 19 6 10 1019.5 1018.8 0.0
25/09:00am 29.1 25.3 1.6 17 13.5 NNW 11 19 6 10 1019.8 1019.1 0.0
25/08:30am 27.8 23.7 -0.3 16 13.2 N 11 17 6 9 1019.8 1019.1 0.0
25/08:00am 26.7 22.8 -1.2 16 12.8 NNW 9 13 5 7 1019.4 1018.7 0.0
25/07:30am 24.7 20.7 -2.0 17 11.9 N 9 11 5 6 1019.1 1018.4 0.0
25/07:00am 22.1 18.3 -0.6 22 10.1 N 9 13 5 7 1018.6 1017.9 0.0
25/06:30am 18.9 14.7 -1.0 26 8.6 NNE 11 13 6 7 1017.9 1017.2 0.0
25/06:00am 18.5 15.2 0.2 29 8.0 NE 7 9 4 5 1017.3 1016.6 0.0
25/05:30am 17.3 13.9 -0.9 29 7.8 ENE 7 9 4 5 1017.0 1016.3 0.0
25/05:00am 18.1 15.1 0.7 31 7.7 ENE 6 7 3 4 1016.7 1016.0 0.0
25/04:30am 19.2 15.8 -0.7 26 8.7 ENE 7 9 4 5 1016.1 1015.3 0.0
25/04:00am 21.2 17.3 1.0 26 9.2 NE 11 13 6 7 1015.7 1014.9 0.0
25/03:30am 22.4 18.2 1.4 25 9.8 ENE 13 17 7 9 1015.6 1014.8 0.0
25/03:00am 22.0 18.5 1.1 25 9.6 E 9 13 5 7 1015.5 1014.7 0.0
25/02:30am 21.6 17.9 0.2 24 9.7 ENE 9 11 5 6 1015.4 1014.6 0.0
25/02:00am 22.5 18.6 0.9 24 10.0 E 11 13 6 7 1015.5 1014.7 0.0
25/01:30am 21.2 17.8 -0.7 23 9.7 E 7 9 4 5 1015.6 1014.8 0.0
25/01:00am 23.5 20.1 1.8 24 10.3 E 9 11 5 6 1015.9 1015.1 0.0
25/12:30am 25.4 20.4 1.5 21 11.4 ESE 17 22 9 12 1015.9 1015.1 0.0
25/12:00am 26.2 21.2 1.5 20 11.8 E 17 19 9 10 1015.7 1014.9 0.0
 
Date/Time
EST
Temp
°C
App
Temp
°C
Dew
Point
Rel
Hum
%
Delta-T
°C
Wind Press
QNH
hPa
Press
MSL
hPa
Rain
since 9 am
mm
Dir
 
Spd
km/h
Gust
km/h
Spd
kts
Gust
kts
24/11:30pm 24.9 20.7 1.7 22 11.1 E 13 17 7 9 1015.9 1015.1 0.0
24/11:00pm 24.5 20.1 0.1 20 11.3 ESE 13 15 7 8 1016.0 1015.2 0.0
24/10:30pm 24.4 19.5 -0.7 19 11.4 ESE 15 15 8 8 1016.0 1015.2 0.0
24/10:00pm 24.3 19.7 -0.8 19 11.4 ESE 13 13 7 7 1015.9 1015.1 0.0
24/09:30pm 25.2 20.6 -0.8 18 11.9 ESE 13 15 7 8 1015.5 1014.7 0.0
24/09:00pm 24.9 19.8 -1.8 17 11.9 ESE 15 15 8 8 1015.2 1014.4 0.0
24/08:30pm 26.2 21.9 -1.6 16 12.6 SE 11 13 6 7 1015.0 1014.2 0.0
24/08:00pm 28.1 23.5 -0.9 15 13.5 ESE 13 13 7 7 1014.4 1013.6 0.0
24/07:30pm 31.2 26.3 -0.5 13 15.2 ESE 15 19 8 10 1014.0 1013.2 0.0
24/07:00pm 33.2 27.4 0.0 12 16.3 ESE 20 30 11 16 1013.6 1012.9 0.0
24/06:30pm 34.8 27.1 0.0 11 17.3 ESE 30 39 16 21 1013.1 1012.4 0.0
24/06:00pm 35.9 28.9 -0.5 10 18.0 E 26 33 14 18 1012.8 1012.1 0.0
24/05:30pm 36.5 30.0 0.0 10 18.3 E 24 35 13 19 1012.6 1011.9 0.0
24/05:00pm 37.0 29.8 0.4 10 18.5 ESE 28 35 15 19 1012.6 1011.9 0.0
24/04:30pm 37.0 29.4 0.4 10 18.5 ESE 30 41 16 22 1012.6 1011.9 0.0
24/04:00pm 38.0 31.6 1.1 10 19.0 ESE 24 39 13 21 1012.7 1012.0 0.0
24/03:30pm 37.5 31.8 0.7 10 18.8 E 20 35 11 19 1012.9 1012.2 0.0
24/03:00pm 37.9 30.4 1.0 10 18.9 E 30 44 16 24 1013.3 1012.6 0.0
24/02:30pm 38.6 31.2 1.6 10 19.2 ESE 30 50 16 27 1013.8 1013.1 0.0
24/02:11pm 37.8 30.9 2.3 11 18.6 ENE 28 46 15 25 1014.0 1013.2 0.0
24/02:00pm 37.0 31.5 1.7 11 18.2 ESE 20 37 11 20 1014.3 1013.5 0.0
24/01:30pm 36.4 30.0 1.2 11 18.0 E 24 33 13 18 1015.0 1014.2 0.0
24/01:00pm 36.2 30.8 1.1 11 17.8 E 19 35 10 19 1015.7 1014.9 0.0
24/12:30pm 35.2 29.6 1.5 12 17.2 E 20 32 11 17 1016.3 1015.5 0.0
24/12:00pm 34.7 29.8 2.3 13 16.6 NE 17 33 9 18 1017.0 1016.3 0.0
24/11:30am 34.0 30.6 1.7 13 16.4 ENE 9 15 5 8 1017.6 1016.9 0.0
24/11:00am 34.7 31.7 4.3 15 16.1 ENE 9 17 5 9 1018.1 1017.4 0.0
24/10:30am 32.2 28.8 4.1 17 14.7 NE 11 24 6 13 1018.7 1018.0 0.0
24/10:00am 31.4 27.6 5.8 20 13.6 NNE 15 22 8 12 1019.1 1018.4 0.0
24/09:30am 30.7 26.9 5.9 21 13.2 N 15 22 8 12 1019.1 1018.4 0.0
24/09:00am 29.3 24.6 6.0 23 12.3 NNE 20 26 11 14 1019.1 1018.4 0.0
24/08:30am 27.7 22.1 5.3 24 11.6 NNE 24 28 13 15 1018.9 1018.2 0.0
24/08:00am 26.7 21.5 5.6 26 10.9 NNE 22 28 12 15 1018.6 1017.9 0.0
24/07:30am 25.1 20.2 4.3 26 10.4 NNE 19 26 10 14 1018.4 1017.7 0.0
24/07:00am 21.5 18.4 1.2 26 9.3 NE 7 13 4 7 1017.9 1017.2 0.0
24/06:30am 19.7 16.1 0.7 28 8.5 NE 9 13 5 7 1017.4 1016.7 0.0
24/06:00am 18.3 14.7 0.4 30 7.9 NE 9 11 5 6 1016.9 1016.2 0.0
24/05:30am 18.0 14.0 0.2 30 7.8 ENE 11 11 6 6 1016.5 1015.8 0.0
24/05:00am 16.9 13.5 -0.3 31 7.4 ENE 7 11 4 6 1016.3 1015.5 0.0
24/04:30am 17.9 14.3 0.6 31 7.6 NE 9 11 5 6 1015.9 1015.1 0.0
24/04:00am 18.3 15.2 0.0 29 8.0 ENE 6 9 3 5 1015.4 1014.6 0.0
24/03:30am 18.0 13.8 -0.8 28 8.1 ESE 11 13 6 7 1015.3 1014.5 0.0
24/03:00am 18.2 13.7 -0.6 28 8.1 ESE 13 15 7 8 1015.3 1014.5 0.0
24/02:30am 18.3 13.7 -1.0 27 8.3 ESE 13 13 7 7 1015.2 1014.4 0.0
24/02:00am 20.2 15.8 0.1 26 9.0 E 13 15 7 8 1015.4 1014.6 0.0
24/01:30am 20.9 16.6 1.2 27 9.0 E 13 13 7 7 1015.6 1014.8 0.0
24/01:00am 20.7 16.4 1.1 27 8.9 ESE 13 13 7 7 1015.9 1015.1 0.0
24/12:30am 21.2 16.9 1.0 26 9.2 E 13 13 7 7 1016.0 1015.2 0.0
24/12:00am 20.9 16.6 0.7 26 9.2 ESE 13 13 7 7 1016.2 1015.4 0.0
 
Date/Time
EST
Temp
°C
App
Temp
°C
Dew
Point
Rel
Hum
%
Delta-T
°C
Wind Press
QNH
hPa
Press
MSL
hPa
Rain
since 9 am
mm
Dir
 
Spd
km/h
Gust
km/h
Spd
kts
Gust
kts
23/11:30pm 21.4 17.0 0.6 25 9.5 ESE 13 13 7 7 1016.3 1015.5 0.0
23/11:00pm 22.9 19.5 1.9 25 9.9 ESE 9 11 5 6 1016.3 1015.5 0.0
23/10:30pm 23.3 19.0 1.0 23 10.4 ESE 13 15 7 8 1016.2 1015.4 0.0
23/10:00pm 24.9 21.6 2.4 23 10.9 E 9 11 5 6 1016.0 1015.2 0.0
23/09:30pm 25.5 21.7 1.6 21 11.4 ESE 11 13 6 7 1015.8 1015.0 0.0
23/09:00pm 28.0 24.0 3.0 20 12.5 E 13 15 7 8 1015.3 1014.5 0.0
23/08:30pm 29.7 25.0 2.9 18 13.5 ESE 17 20 9 11 1014.9 1014.1 0.0
23/08:00pm 30.3 25.5 2.5 17 14.0 ESE 17 20 9 11 1014.6 1013.8 0.0
23/07:30pm 30.7 26.2 2.0 16 14.3 E 15 17 8 9 1014.2 1013.4 0.0
23/07:00pm 32.7 26.6 2.7 15 15.3 E 24 33 13 18 1013.7 1013.0 0.0
23/06:30pm 33.7 27.7 3.5 15 15.7 ESE 24 32 13 17 1013.4 1012.7 0.0
23/06:00pm 34.7 27.6 3.3 14 16.4 ESE 30 41 16 22 1013.2 1012.5 0.0
23/05:30pm 35.1 29.0 2.6 13 16.8 ESE 24 32 13 17 1012.7 1012.0 0.0
23/05:00pm 35.7 28.1 3.0 13 17.1 E 32 48 17 26 1012.5 1011.8 0.0
23/04:54pm 35.8 29.0 3.1 13 17.1 E 28 63 15 34 1012.4 1011.7 0.0
23/04:47pm 35.7 30.2 4.1 14 16.8 ESE 22 63 12 34 1012.4 1011.7 0.0
23/04:30pm 36.5 29.4 3.7 13 17.4 ESE 30 43 16 23 1012.6 1011.9 0.0
23/04:00pm 36.5 30.2 3.7 13 17.4 SE 26 37 14 20 1012.6 1011.9 0.0
23/03:30pm 36.2 30.0 4.5 14 17.0 E 26 35 14 19 1012.8 1012.1 0.0
23/03:00pm 36.2 31.2 4.5 14 17.0 E 20 35 11 19 1012.9 1012.2 0.0
23/02:30pm 37.2 31.0 4.2 13 17.7 E 26 43 14 23 1013.4 1012.7 0.0
23/02:00pm 36.8 31.7 5.9 15 17.0 ESE 22 37 12 20 1014.0 1013.2 0.0
23/01:30pm 36.5 30.0 6.6 16 16.6 SSE 30 67 16 36 1014.5 1013.7 0.0
23/01:28pm 35.4 27.4 5.8 16 16.2 SE 37 67 20 36 1014.4 1013.6 0.0
23/01:27pm 36.5 28.7 6.6 16 16.6 E 37 67 20 36 1013.8 1013.1 0.0
23/01:00pm 35.6 30.1 5.9 16 16.2 ESE 24 41 13 22 1015.3 1014.5 0.0
23/12:30pm 35.7 29.5 6.0 16 16.3 ESE 28 39 15 21 1015.9 1015.1 0.0
23/12:00pm 34.6 31.0 6.8 18 15.3 ENE 15 28 8 15 1016.6 1015.9 0.0
23/11:30am 33.1 29.4 6.4 19 14.5 ENE 15 26 8 14 1017.1 1016.4 0.0
23/11:00am 33.9 31.3 7.8 20 14.6 NE 11 24 6 13 1017.6 1016.9 0.0
23/10:30am 32.6 30.2 8.8 23 13.4 ENE 11 19 6 10 1018.1 1017.4 0.0
23/10:00am 30.9 28.7 9.2 26 12.2 NE 11 20 6 11 1018.5 1017.8 0.0
23/09:30am 29.6 26.1 8.6 27 11.6 NNE 17 24 9 13 1018.7 1018.0 0.0
23/09:00am 28.9 25.1 9.1 29 11.0 NNE 19 26 10 14 1018.8 1018.1 0.0
23/08:30am 28.0 24.5 8.8 30 10.6 NNE 17 22 9 12 1018.7 1018.0 0.0
23/08:00am 26.6 22.8 9.0 33 9.6 NNE 19 24 10 13 1018.7 1018.0 0.0
23/07:30am 25.0 22.1 8.1 34 9.1 NNE 13 20 7 11 1018.4 1017.7 0.0
23/07:00am 21.2 18.2 3.9 32 8.4 NNE 9 11 5 6 1018.0 1017.3 0.0
23/06:30am 18.0 14.5 -1.3 27 8.2 NE 7 9 4 5 1017.5 1016.8 0.0
23/06:00am 16.9 13.6 -1.2 29 7.6 ENE 6 7 3 4 1017.0 1016.3 0.0
23/05:30am 17.2 13.5 -3.0 25 8.2 E 7 9 4 5 1016.7 1016.0 0.0
23/05:00am 18.0 14.5 -2.8 24 8.6 E 6 7 3 4 1016.5 1015.8 0.0
23/04:30am 18.1 14.0 -2.8 24 8.6 E 9 9 5 5 1016.3 1015.5 0.0
23/04:00am 17.8 13.7 -3.0 24 8.5 E 9 11 5 6 1016.1 1015.3 0.0
23/03:30am 18.1 14.0 -2.8 24 8.6 ESE 9 11 5 6 1016.0 1015.2 0.0
23/03:00am 18.4 14.3 -3.1 23 8.8 ESE 9 9 5 5 1016.0 1015.2 0.0
23/02:30am 19.6 15.2 -2.7 22 9.4 ESE 11 15 6 8 1016.1 1015.3 0.0
23/02:00am 20.7 15.6 -1.8 22 9.7 E 15 17 8 9 1016.1 1015.3 0.0
23/01:30am 21.1 16.0 -2.0 21 10.0 ESE 15 19 8 10 1016.3 1015.5 0.0
23/01:00am 21.2 16.1 -2.0 21 10.0 SE 15 17 8 9 1016.4 1015.7 0.0
23/12:30am 21.0 16.2 -2.8 20 10.1 E 13 15 7 8 1016.6 1015.9 0.0
23/12:00am 22.3 17.1 -2.4 19 10.7 ESE 15 19 8 10 1016.6 1015.9 0.0
 
Date/Time
EST
Temp
°C
App
Temp
°C
Dew
Point
Rel
Hum
%
Delta-T
°C
Wind Press
QNH
hPa
Press
MSL
hPa
Rain
since 9 am
mm
Dir
 
Spd
km/h
Gust
km/h
Spd
kts
Gust
kts
22/11:30pm 23.4 18.3 -2.2 18 11.2 ESE 15 19 8 10 1016.6 1015.9 0.0
22/11:00pm 24.6 18.7 -2.0 17 11.8 ESE 19 22 10 12 1016.5 1015.8 0.0
22/10:30pm 25.6 19.7 -2.1 16 12.4 SE 19 24 10 13 1016.4 1015.7 0.0
22/10:00pm 26.7 20.6 -2.1 15 13.0 SE 20 26 11 14 1016.1 1015.3 0.0
22/09:30pm 26.7 21.2 -2.1 15 13.0 SE 17 20 9 11 1016.0 1015.2 0.0
22/09:00pm 27.2 21.4 -1.7 15 13.2 SE 19 20 10 11 1015.6 1014.8 0.0
22/08:30pm 27.3 22.4 -0.7 16 13.0 SSE 15 19 8 10 1015.3 1014.5 0.0
22/08:00pm 27.4 22.4 -1.5 15 13.2 SE 15 17 8 9 1014.9 1014.1 0.0
22/07:30pm 29.1 24.0 -2.1 13 14.3 SE 15 17 8 9 1014.5 1013.7 0.0
22/07:00pm 31.4 26.0 -1.4 12 15.5 ESE 17 22 9 12 1014.2 1013.4 0.0
22/06:30pm 33.1 26.8 -1.3 11 16.5 ESE 22 30 12 16 1013.8 1013.1 0.0
22/06:00pm 34.4 26.5 -1.6 10 17.3 ESE 30 35 16 19 1013.5 1012.8 0.0
22/05:30pm 35.1 28.0 -1.1 10 17.7 ESE 26 37 14 20 1013.3 1012.6 0.0
22/05:00pm 35.7 29.1 -0.6 10 17.9 E 24 35 13 19 1013.3 1012.6 0.0
22/04:30pm 36.0 30.2 -0.4 10 18.1 ESE 20 33 11 18 1013.5 1012.8 0.0
22/04:00pm 36.3 30.7 1.2 11 17.9 SE 20 33 11 18 1013.7 1013.0 0.0
22/03:30pm 36.1 30.1 1.0 11 17.8 E 22 33 12 18 1013.8 1013.1 0.0

Other Formats:

Comma delimited format used in spreadsheet applications
http://www.bom.gov.au/fwo/IDQ60801/IDQ60801.94337.axf

JavaScript Object Notation format (JSON) in row-major order
http://www.bom.gov.au/fwo/IDQ60801/IDQ60801.94337.json